Current Conditions
Clear
Conditions



Pressure
1021 (hPa) - 30.15 (inHG)
Visibility

9.7 (km) - 6.0 (miles)
   Temperature
19  °C
66°F
7  °C
Dewpoint
46  %
 Humidity
   Wind Speed
10  km/h
5  kts
6  mph
2.7  m/s
   Wind Direction
 240°
West South
West
   Airport Data
LRIA
Location Ia┼či Airport 13 km (8mi)
Metar :LRIA 131830Z 24005KT CAVOK 19/07 Q1021
Sat 13th April 18:30 pm
   Raw Metar Info
Raw METAR is the most common format in the world for the transmission of observational weather data. It is highly standardized through the International Civil Aviation Organization (ICAO), which allows it to be understood throughout most of the world.
   API Info
Data Provided by
https://www.checkwx.com/weather/
   © Info
CSS/SVG/PHP scripts were developed by weather34.com for use in the weather34 template © 2015-2024

Guide Info provided by Metar-Wikipedia